Time;durP1;ratioP1;P1;durP2;ratioP2;P2;SDS_P1;SDS_P2;PMS_P1;PMS_P2;Temp;Humidity;BMP_temperature;BMP_pressure;BME280_temperature;BME280_humidity;BME280_pressure;Samples;Min_cycle;Max_cycle;Signal;HPM_P1;HPM_P2
2023/10/04 00:08:37;;;;;;;8.20;1.90;;;13.50;4.70;;;;;;20468496;28;20054;-42
2023/10/04 00:18:38;;;;;;;11.15;1.65;;;13.40;14.60;;;;;;20469573;28;20098;-42
2023/10/04 00:28:39;;;;;;;10.43;1.93;;;13.40;5.70;;;;;;20472090;28;20520;-42
2023/10/04 00:38:40;;;;;;;4.95;1.40;;;13.30;8.50;;;;;;20468098;28;20476;-42
2023/10/04 00:48:41;;;;;;;8.23;1.65;;;13.30;8.00;;;;;;20469601;28;20428;-42
2023/10/04 00:58:43;;;;;;;7.03;1.80;;;13.20;18.50;;;;;;20471807;28;20038;-42
2023/10/04 01:08:44;;;;;;;6.88;1.70;;;13.10;16.90;;;;;;20462808;28;20141;-42
2023/10/04 01:18:45;;;;;;;8.38;1.80;;;13.00;22.60;;;;;;20468657;28;21146;-42
2023/10/04 01:28:46;;;;;;;5.80;1.55;;;13.00;28.20;;;;;;20467476;28;20214;-42
2023/10/04 01:38:47;;;;;;;7.00;1.92;;;12.90;32.30;;;;;;20472519;28;20054;-42
2023/10/04 01:48:49;;;;;;;7.05;1.80;;;13.00;23.00;;;;;;20476197;28;20053;-42
2023/10/04 01:58:49;;;;;;;7.85;1.70;;;13.00;19.50;;;;;;20474008;28;20039;-42
2023/10/04 02:08:50;;;;;;;5.35;1.77;;;13.10;20.40;;;;;;20480455;28;20035;-42
2023/10/04 02:18:52;;;;;;;6.68;1.60;;;13.00;23.30;;;;;;20478487;28;20046;-42
2023/10/04 02:28:53;;;;;;;7.22;1.45;;;13.00;24.80;;;;;;20487290;28;20093;-42
2023/10/04 02:38:55;;;;;;;10.05;1.70;;;13.00;24.20;;;;;;20484469;28;20054;-42
2023/10/04 02:48:56;;;;;;;8.27;1.67;;;13.10;13.50;;;;;;20482703;28;20042;-42
2023/10/04 02:58:56;;;;;;;8.93;1.95;;;13.20;5.90;;;;;;20490780;28;20038;-42
2023/10/04 03:08:57;;;;;;;7.75;1.70;;;13.30;5.00;;;;;;20482266;28;20039;-42
2023/10/04 03:18:58;;;;;;;4.50;1.37;;;13.40;1.00;;;;;;20481080;28;20039;-42
2023/10/04 03:28:58;;;;;;;6.25;1.63;;;13.20;1.50;;;;;;20479565;28;20485;-42
2023/10/04 03:38:59;;;;;;;10.52;2.03;;;13.00;10.40;;;;;;20445555;28;20551;-42
2023/10/04 03:49:01;;;;;;;7.45;1.65;;;12.90;18.70;;;;;;20491243;28;20426;-42
2023/10/04 03:59:03;;;;;;;5.75;1.55;;;12.80;23.40;;;;;;20491480;28;20031;-42
2023/10/04 04:09:08;;;;;;;5.55;1.77;;;12.60;29.90;;;;;;20488839;28;20050;-42
2023/10/04 04:19:08;;;;;;;9.73;2.45;;;12.50;42.80;;;;;;20482243;28;20038;-42
2023/10/04 04:29:09;;;;;;;7.20;1.65;;;12.40;49.20;;;;;;20475694;28;20058;-42
2023/10/04 04:39:16;;;;;;;7.65;1.83;;;12.50;59.30;;;;;;20475375;28;20042;-42
2023/10/04 04:49:17;;;;;;;4.57;1.92;;;12.60;42.70;;;;;;20478620;28;20046;-42
2023/10/04 04:59:21;;;;;;;6.88;2.28;;;12.40;53.20;;;;;;20482238;28;20046;-42
2023/10/04 05:09:21;;;;;;;9.52;2.40;;;12.30;59.40;;;;;;20469575;28;20114;-42
2023/10/04 05:19:22;;;;;;;9.93;2.55;;;12.40;57.20;;;;;;20458676;28;20093;-42
2023/10/04 05:29:22;;;;;;;9.40;2.55;;;12.40;59.00;;;;;;20479869;28;20077;-42
2023/10/04 05:39:23;;;;;;;11.93;3.00;;;12.40;63.60;;;;;;20510252;28;20044;-42
2023/10/04 05:49:23;;;;;;;10.40;2.33;;;12.50;54.20;;;;;;20506224;28;20463;-42
2023/10/04 05:59:26;;;;;;;6.28;2.45;;;12.60;42.60;;;;;;20520104;28;20070;-42
2023/10/04 06:09:29;;;;;;;9.75;2.53;;;12.60;31.10;;;;;;20522358;28;20047;-41
2023/10/04 06:19:30;;;;;;;9.50;2.40;;;12.60;24.00;;;;;;20522608;28;20133;-42
2023/10/04 06:29:31;;;;;;;9.63;2.33;;;12.60;28.40;;;;;;20525184;28;20039;-42
2023/10/04 06:39:31;;;;;;;10.90;2.88;;;12.70;22.60;;;;;;20521922;28;20458;-42
2023/10/04 06:49:32;;;;;;;13.07;3.55;;;12.80;41.00;;;;;;20522129;28;20047;-42
2023/10/04 06:59:35;;;;;;;10.77;3.63;;;12.90;53.20;;;;;;20523053;28;20054;-42
2023/10/04 07:09:35;;;;;;;11.63;3.13;;;13.10;50.90;;;;;;20519512;28;20083;-42
2023/10/04 07:19:37;;;;;;;14.50;3.53;;;13.40;55.00;;;;;;20520694;28;20042;-42
2023/10/04 07:29:37;;;;;;;10.90;3.28;;;13.60;57.60;;;;;;20515962;28;20039;-42
2023/10/04 07:39:38;;;;;;;12.75;3.55;;;13.80;57.00;;;;;;20517054;28;20535;-42
2023/10/04 07:49:38;;;;;;;16.65;4.07;;;14.10;64.50;;;;;;20516715;28;20491;-42
2023/10/04 07:59:41;;;;;;;12.00;3.80;;;14.30;69.00;;;;;;20512044;28;20046;-42
2023/10/04 08:09:43;;;;;;;10.65;3.58;;;14.50;46.50;;;;;;20512883;28;20402;-42
2023/10/04 08:19:44;;;;;;;13.40;3.70;;;14.80;35.30;;;;;;20511186;28;20042;-42
2023/10/04 08:29:44;;;;;;;13.98;4.88;;;14.90;32.00;;;;;;20507808;28;20094;-42
2023/10/04 08:39:45;;;;;;;11.57;4.07;;;15.20;29.50;;;;;;20512183;28;20307;-42
2023/10/04 08:49:55;;;;;;;9.77;3.58;;;15.40;21.60;;;;;;20511046;28;21054;-42
2023/10/04 08:59:56;;;;;;;13.77;5.10;;;15.70;7.60;;;;;;20508628;28;20507;-42
2023/10/04 09:09:58;;;;;;;11.23;3.33;;;15.80;1.00;;;;;;20510874;28;20039;-42
2023/10/04 09:20:11;;;;;;;10.20;3.22;;;15.90;1.10;;;;;;20507292;28;20519;-42
2023/10/04 09:30:23;;;;;;;13.15;3.20;;;16.10;1.00;;;;;;20507648;28;20058;-42
2023/10/04 09:40:24;;;;;;;12.45;3.50;;;16.10;1.00;;;;;;20506740;28;20581;-42
2023/10/04 09:50:26;;;;;;;6.95;2.72;;;15.90;1.00;;;;;;20505653;28;20047;-42
2023/10/04 10:00:29;;;;;;;12.95;3.70;;;15.90;1.00;;;;;;20507505;28;20035;-42
2023/10/04 10:10:31;;;;;;;16.20;4.70;;;16.00;1.00;;;;;;20505778;28;20561;-42
2023/10/04 10:20:32;;;;;;;6.20;2.90;;;16.30;1.00;;;;;;20506631;28;20449;-42
2023/10/04 10:30:33;;;;;;;12.18;3.63;;;16.60;1.00;;;;;;20519449;28;20384;-42
2023/10/04 10:40:35;;;;;;;10.88;3.25;;;17.00;1.00;;;;;;20517131;28;20454;-42
2023/10/04 10:50:40;;;;;;;13.45;3.80;;;17.10;1.00;;;;;;20515975;28;20490;-42
2023/10/04 11:00:41;;;;;;;12.82;3.50;;;16.90;1.00;;;;;;20508708;28;20035;-42
2023/10/04 12:02:56;;;;;;;11.73;3.97;;;17.00;1.00;;;;;;20726380;23;20539;-43
2023/10/04 12:13:05;;;;;;;12.07;4.68;;;16.90;1.00;;;;;;21242778;23;20032;-42
2023/10/04 12:23:06;;;;;;;6.97;2.63;;;16.90;1.00;;;;;;20734848;23;20855;-43
2023/10/04 12:43:17;;;;;;;11.77;4.60;;;16.50;1.00;;;;;;20983192;22;20148;-44
2023/10/04 14:55:30;;;;;;;4.97;1.98;;;17.80;1.00;;;;;;6968671;23;20156;-45
2023/10/04 15:15:56;;;;;;;6.45;1.60;;;17.70;1.00;;;;;;21052174;23;20283;-43
2023/10/04 15:37:42;;;;;;;4.90;1.90;;;17.40;1.00;;;;;;20231306;29;20051;-43
2023/10/04 15:57:46;;;;;;;4.05;1.80;;;17.00;1.00;;;;;;20473640;23;20200;-43
2023/10/04 16:07:47;;;;;;;6.20;3.05;;;17.00;1.00;;;;;;19832589;29;20732;-43
2023/10/04 16:17:48;;;;;;;6.45;1.65;;;17.00;1.00;;;;;;20174662;29;20536;-43
2023/10/04 17:21:57;;;;;;;3.92;1.33;;;16.30;1.00;;;;;;20307384;29;20056;-44
2023/10/04 18:15:00;;;;;;;6.47;1.40;;;15.70;1.00;;;;;;11563074;23;20052;-93
2023/10/04 18:25:02;;;;;;;8.65;1.40;;;15.40;1.00;;;;;;20394714;29;20052;-94
2023/10/04 18:35:04;;;;;;;7.35;1.52;;;15.20;1.00;;;;;;20351417;29;20176;-92
2023/10/04 18:45:08;;;;;;;7.88;1.63;;;15.20;1.00;;;;;;20330144;29;20072;-91
2023/10/04 18:55:16;;;;;;;6.60;1.50;;;15.30;1.00;;;;;;20361969;29;20119;-93
2023/10/04 19:05:18;;;;;;;5.10;1.30;;;15.20;1.00;;;;;;20408935;29;20040;-93
2023/10/04 19:15:19;;;;;;;5.28;1.75;;;15.20;1.00;;;;;;20320322;29;20961;-92
2023/10/04 19:25:21;;;;;;;4.50;1.90;;;15.10;1.00;;;;;;20301497;29;20044;-90
2023/10/04 19:35:21;;;;;;;6.70;1.35;;;15.00;1.00;;;;;;20288006;29;20107;-90
2023/10/04 19:45:22;;;;;;;8.27;1.60;;;14.80;1.00;;;;;;20291956;29;20115;-92
2023/10/04 19:55:23;;;;;;;6.07;1.33;;;14.70;1.00;;;;;;20304093;29;20044;-92
2023/10/04 20:05:33;;;;;;;6.45;1.38;;;14.70;1.00;;;;;;20295174;29;20044;-91
2023/10/04 20:15:37;;;;;;;6.95;1.58;;;14.60;1.00;;;;;;20293582;29;20056;-93
2023/10/04 20:25:41;;;;;;;7.97;1.88;;;14.50;1.00;;;;;;20284675;29;20510;-93
2023/10/04 20:35:41;;;;;;;5.50;1.40;;;14.50;1.00;;;;;;20278808;29;20110;-92
2023/10/04 20:45:43;;;;;;;6.75;1.45;;;14.60;1.00;;;;;;20284094;29;20044;-91
2023/10/04 20:55:44;;;;;;;10.93;1.52;;;14.50;1.00;;;;;;20284928;29;20063;-93
2023/10/04 21:05:45;;;;;;;7.70;2.28;;;14.70;1.00;;;;;;20286005;29;20046;-94
2023/10/04 21:15:45;;;;;;;7.90;1.70;;;14.80;1.00;;;;;;20263260;29;20055;-93
2023/10/04 21:25:46;;;;;;;5.18;1.63;;;14.90;1.00;;;;;;20274340;29;20040;-90
2023/10/04 21:36:02;;;;;;;6.25;1.50;;;15.00;1.00;;;;;;20279195;29;20527;-91
2023/10/04 21:46:09;;;;;;;6.80;1.40;;;15.20;1.00;;;;;;20288050;29;20043;-87
2023/10/04 21:56:10;;;;;;;7.53;1.60;;;15.30;1.00;;;;;;20255443;29;20071;-87
2023/10/04 22:06:11;;;;;;;6.00;1.60;;;15.30;1.00;;;;;;20259766;29;20461;-88
2023/10/04 22:16:13;;;;;;;6.03;1.40;;;15.30;1.00;;;;;;20255761;29;20063;-88
2023/10/04 22:26:14;;;;;;;6.80;1.50;;;15.40;1.00;;;;;;20267260;29;20051;-87
2023/10/04 22:36:15;;;;;;;6.50;1.20;;;15.20;1.00;;;;;;20259604;29;20224;-87
2023/10/04 22:46:15;;;;;;;9.23;1.88;;;15.30;1.00;;;;;;20257041;29;20056;-87
2023/10/04 22:56:17;;;;;;;6.10;1.50;;;15.20;1.00;;;;;;20253346;29;20695;-87
2023/10/04 23:06:21;;;;;;;7.18;1.80;;;15.20;1.00;;;;;;20256634;29;20043;-88
2023/10/04 23:16:25;;;;;;;5.63;1.50;;;15.40;1.00;;;;;;20282086;29;20048;-88
2023/10/04 23:26:26;;;;;;;5.13;1.30;;;15.10;1.00;;;;;;20257040;29;20520;-87
2023/10/04 23:36:26;;;;;;;7.23;1.60;;;15.20;1.00;;;;;;20255789;29;20505;-87
2023/10/04 23:56:31;;;;;;;7.05;1.40;;;15.40;1.00;;;;;;20258767;29;20053;-88
